Time;durP1;ratioP1;P1;durP2;ratioP2;P2;SDS_P1;SDS_P2;PMS_P1;PMS_P2;Temp;Humidity;BMP_temperature;BMP_pressure;BME280_temperature;BME280_humidity;BME280_pressure;Samples;Min_cycle;Max_cycle;Signal;HPM_P1;HPM_P2
2022/10/04 00:00:29;;;;;;;;;;;;;;;;;;5136236;27;1907;-49
2022/10/04 00:03:05;;;;;;;;;;;;;;;;;;5136116;27;2206;-53
2022/10/04 00:05:33;;;;;;;;;;;;;;;;;;5136147;27;1896;-50
2022/10/04 00:08:16;;;;;;;;;;;;;;;;;;5135820;27;1906;-46
2022/10/04 00:10:43;;;;;;;;;;;;;;;;;;5136133;27;1959;-53
2022/10/04 00:13:17;;;;;;;;;;;;;;;;;;5135771;27;2067;-53
2022/10/04 00:15:48;;;;;;;;;;;;;;;;;;5134429;27;2071;-50
2022/10/04 00:18:36;;;;;;;;;;;;;;;;;;5135829;27;1862;-51
2022/10/04 00:21:04;;;;;;;;;;;;;;;;;;5136059;27;1936;-50
2022/10/04 00:23:35;;;;;;;;;;;;;;;;;;5135630;27;1296;-48
2022/10/04 00:26:05;;;;;;;;;;;;;;;;;;5134516;27;1966;-52
2022/10/04 00:28:36;;;;;;;;;;;;;;;;;;5135749;27;2505;-49
2022/10/04 00:31:08;;;;;;;;;;;;;;;;;;5135575;27;1995;-48
2022/10/04 00:33:39;;;;;;;;;;;;;;;;;;5123406;27;1884;-48
2022/10/04 00:36:27;;;;;;;;;;;;;;;;;;5115265;28;2109;-49
2022/10/04 00:39:04;;;;;;;;;;;;;;;;;;5104425;28;1950;-52
2022/10/04 00:41:46;;;;;;;;;;;;;;;;;;5113483;27;1970;-50
2022/10/04 00:44:34;;;;;;;;;;;;;;;;;;5122887;27;1955;-45
2022/10/04 00:47:02;;;;;;;;;;;;;;;;;;5134309;27;2235;-51
2022/10/04 00:49:34;;;;;;;;;;;;;;;;;;5135319;27;1977;-48
2022/10/04 00:52:06;;;;;;;;;;;;;;;;;;5135523;27;2016;-58
2022/10/04 00:54:40;;;;;;;;;;;;;;;;;;5134878;27;1760;-53
2022/10/04 00:57:13;;;;;;;;;;;;;;;;;;5135205;27;1872;-49
2022/10/04 00:59:42;;;;;;;;;;;;;;;;;;5135216;27;2042;-51
2022/10/04 01:02:30;;;;;;;;;;;;;;;;;;5135212;27;1941;-50
2022/10/04 01:05:09;;;;;;;;;;;;;;;;;;5134921;27;1916;-55
2022/10/04 01:07:42;;;;;;;;;;;;;;;;;;5134505;27;1975;-52
2022/10/04 01:10:13;;;;;;;;;;;;;;;;;;5135210;27;1834;-52
2022/10/04 01:12:46;;;;;;;;;;;;;;;;;;5134869;27;2199;-54
2022/10/04 01:15:21;;;;;;;;;;;;;;;;;;5134681;27;2246;-56
2022/10/04 01:18:08;;;;;;;;;;;;;;;;;;5133561;27;1853;-49
2022/10/04 01:20:59;;;;;;;;;;;;;;;;;;5134801;27;2098;-52
2022/10/04 01:23:39;;;;;;;;;;;;;;;;;;5126734;27;1779;-50
2022/10/04 01:26:22;;;;;;;;;;;;;;;;;;5134341;27;1811;-51
2022/10/04 01:28:49;;;;;;;;;;;;;;;;;;5134557;27;1906;-50
2022/10/04 01:31:17;;;;;;;;;;;;;;;;;;5133984;27;1994;-52
2022/10/04 01:33:45;;;;;;;;;;;;;;;;;;5120916;27;2017;-50
2022/10/04 01:36:12;;;;;;;;;;;;;;;;;;5114019;28;1993;-53
2022/10/04 01:38:39;;;;;;;;;;;;;;;;;;5112972;28;2070;-48
2022/10/04 01:41:07;;;;;;;;;;;;;;;;;;5113581;28;1979;-49
2022/10/04 01:43:36;;;;;;;;;;;;;;;;;;5113791;28;1848;-46
2022/10/04 01:46:12;;;;;;;;;;;;;;;;;;5113923;28;2226;-50
2022/10/04 01:48:42;;;;;;;;;;;;;;;;;;5113808;28;2085;-52
2022/10/04 01:51:29;;;;;;;;;;;;;;;;;;5113858;28;1906;-50
2022/10/04 01:54:01;;;;;;;;;;;;;;;;;;5113567;28;1847;-51
2022/10/04 01:56:32;;;;;;;;;;;;;;;;;;5112737;28;1988;-52
2022/10/04 01:59:05;;;;;;;;;;;;;;;;;;5113267;28;2069;-48
2022/10/04 02:01:52;;;;;;;;;;;;;;;;;;5113435;28;2000;-57
2022/10/04 02:04:22;;;;;;;;;;;;;;;;;;5103103;28;1793;-50
2022/10/04 02:06:53;;;;;;;;;;;;;;;;;;5113474;28;1973;-49
2022/10/04 02:09:25;;;;;;;;;;;;;;;;;;5113026;28;1775;-51
2022/10/04 02:11:53;;;;;;;;;;;;;;;;;;5113397;28;1905;-50
2022/10/04 02:14:25;;;;;;;;;;;;;;;;;;5112927;28;1777;-53
2022/10/04 02:16:52;;;;;;;;;;;;;;;;;;5113145;28;2027;-48
2022/10/04 02:19:24;;;;;;;;;;;;;;;;;;5113239;28;1970;-49
2022/10/04 02:21:51;;;;;;;;;;;;;;;;;;5112947;28;1874;-51
2022/10/04 02:24:18;;;;;;;;;;;;;;;;;;5113290;28;2048;-49
2022/10/04 02:26:52;;;;;;;;;;;;;;;;;;5112850;28;1984;-51
2022/10/04 02:29:19;;;;;;;;;;;;;;;;;;5112715;28;1737;-50
2022/10/04 02:34:33;;;;;;;;;;;;;;;;;;5133259;27;1961;-53
2022/10/04 02:37:02;;;;;;;;;;;;;;;;;;5133546;28;1800;-48
2022/10/04 02:39:37;;;;;;;;;;;;;;;;;;5133445;27;2168;-49
2022/10/04 02:42:20;;;;;;;;;;;;;;;;;;5149002;27;1847;-54
2022/10/04 02:44:55;;;;;;;;;;;;;;;;;;5133678;27;2045;-50
2022/10/04 02:47:24;;;;;;;;;;;;;;;;;;5133090;27;1902;-50
2022/10/04 02:49:53;;;;;;;;;;;;;;;;;;5133125;28;1929;-51
2022/10/04 02:52:41;;;;;;;;;;;;;;;;;;5133471;28;1819;-50
2022/10/04 02:55:22;;;;;;;;;;;;;;;;;;5123930;27;2010;-53
2022/10/04 02:57:52;;;;;;;;;;;;;;;;;;5112848;28;2095;-50
2022/10/04 03:00:26;;;;;;;;;;;;;;;;;;5112514;28;2203;-53
2022/10/04 03:03:11;;;;;;;;;;;;;;;;;;5112599;28;2048;-53
2022/10/04 03:05:39;;;;;;;;;;;;;;;;;;5112754;28;1907;-55
2022/10/04 03:08:06;;;;;;;;;;;;;;;;;;5112825;28;1973;-50
2022/10/04 03:10:34;;;;;;;;;;;;;;;;;;5116576;28;2121;-52
2022/10/04 03:13:02;;;;;;;;;;;;;;;;;;5116569;28;2126;-54
2022/10/04 03:15:30;;;;;;;;;;;;;;;;;;5116677;28;1987;-55
2022/10/04 03:17:57;;;;;;;;;;;;;;;;;;5116374;28;1964;-55
2022/10/04 03:20:24;;;;;;;;;;;;;;;;;;5116573;28;1963;-49
2022/10/04 03:22:54;;;;;;;;;;;;;;;;;;5116301;28;1777;-50
2022/10/04 03:25:27;;;;;;;;;;;;;;;;;;5115693;28;2043;-52
2022/10/04 03:27:58;;;;;;;;;;;;;;;;;;5116400;28;2006;-48
2022/10/04 03:30:26;;;;;;;;;;;;;;;;;;5114793;28;1972;-51
2022/10/04 03:32:53;;;;;;;;;;;;;;;;;;5116575;28;1913;-53
2022/10/04 03:35:27;;;;;;;;;;;;;;;;;;5115798;28;1843;-52
2022/10/04 03:37:55;;;;;;;;;;;;;;;;;;5116082;28;1901;-48
2022/10/04 03:40:26;;;;;;;;;;;;;;;;;;5116261;28;1967;-50
2022/10/04 03:42:54;;;;;;;;;;;;;;;;;;5115714;28;1980;-52
2022/10/04 03:45:26;;;;;;;;;;;;;;;;;;5116029;28;1957;-52
2022/10/04 03:47:57;;;;;;;;;;;;;;;;;;5116113;28;2047;-47
2022/10/04 03:50:26;;;;;;;;;;;;;;;;;;5133372;27;2054;-51
2022/10/04 03:52:55;;;;;;;;;;;;;;;;;;5136623;27;1934;-50
2022/10/04 03:55:31;;;;;;;;;;;;;;;;;;5136277;27;2030;-50
2022/10/04 03:57:59;;;;;;;;;;;;;;;;;;5136327;27;1895;-48
2022/10/04 04:00:27;;;;;;;;;;;;;;;;;;5136247;27;2007;-50
2022/10/04 04:03:02;;;;;;;;;;;;;;;;;;5136052;27;1874;-52
2022/10/04 04:05:39;;;;;;;;;;;;;;;;;;5136248;27;1881;-46
2022/10/04 04:08:11;;;;;;;;;;;;;;;;;;5136131;27;1902;-52
2022/10/04 04:10:41;;;;;;;;;;;;;;;;;;5136340;27;1990;-52
2022/10/04 04:13:27;;;;;;;;;;;;;;;;;;5136014;27;1903;-49
2022/10/04 04:15:55;;;;;;;;;;;;;;;;;;5136050;27;2051;-52
2022/10/04 04:18:23;;;;;;;;;;;;;;;;;;5136121;27;1989;-50
2022/10/04 04:20:51;;;;;;;;;;;;;;;;;;5135940;27;1940;-48
2022/10/04 04:23:18;;;;;;;;;;;;;;;;;;5136097;27;1769;-51
2022/10/04 04:25:50;;;;;;;;;;;;;;;;;;5135690;27;2023;-49
2022/10/04 04:28:38;;;;;;;;;;;;;;;;;;5134324;27;2001;-50
2022/10/04 04:31:12;;;;;;;;;;;;;;;;;;5135460;27;1946;-50
2022/10/04 04:33:59;;;;;;;;;;;;;;;;;;5122426;27;1956;-53
2022/10/04 04:36:27;;;;;;;;;;;;;;;;;;5115144;28;1908;-51
2022/10/04 04:41:53;;;;;;;;;;;;;;;;;;5115301;28;2019;-49
2022/10/04 04:44:21;;;;;;;;;;;;;;;;;;5114761;28;1989;-49
2022/10/04 04:46:48;;;;;;;;;;;;;;;;;;5114917;28;1821;-49
2022/10/04 04:49:17;;;;;;;;;;;;;;;;;;5114661;28;2153;-46
2022/10/04 04:51:50;;;;;;;;;;;;;;;;;;5115006;28;1863;-52
2022/10/04 04:54:19;;;;;;;;;;;;;;;;;;5114644;28;2126;-49
2022/10/04 04:56:47;;;;;;;;;;;;;;;;;;5114529;28;1948;-46
2022/10/04 04:59:15;;;;;;;;;;;;;;;;;;5114561;28;1888;-52
2022/10/04 05:01:44;;;;;;;;;;;;;;;;;;5114716;28;1893;-50
2022/10/04 05:04:11;;;;;;;;;;;;;;;;;;5114394;28;1831;-49
2022/10/04 05:06:43;;;;;;;;;;;;;;;;;;5114163;28;1816;-50
2022/10/04 05:09:33;;;;;;;;;;;;;;;;;;5114213;28;1983;-51
2022/10/04 05:12:06;;;;;;;;;;;;;;;;;;5106654;28;1798;-48
2022/10/04 05:14:37;;;;;;;;;;;;;;;;;;5114215;28;1993;-52
2022/10/04 05:17:05;;;;;;;;;;;;;;;;;;5114316;28;1982;-51
2022/10/04 05:19:36;;;;;;;;;;;;;;;;;;5114231;28;1925;-52
2022/10/04 05:22:09;;;;;;;;;;;;;;;;;;5114134;28;1932;-54
2022/10/04 05:24:38;;;;;;;;;;;;;;;;;;5114122;28;1549;-51
2022/10/04 05:27:08;;;;;;;;;;;;;;;;;;5113824;28;2132;-51
2022/10/04 05:29:37;;;;;;;;;;;;;;;;;;5114007;28;1909;-47
2022/10/04 05:32:20;;;;;;;;;;;;;;;;;;5113456;28;2050;-51
2022/10/04 05:34:48;;;;;;;;;;;;;;;;;;5113720;28;1970;-52
2022/10/04 05:37:18;;;;;;;;;;;;;;;;;;5113453;28;1976;-52
2022/10/04 05:39:50;;;;;;;;;;;;;;;;;;5113867;28;2279;-51
2022/10/04 05:42:23;;;;;;;;;;;;;;;;;;5112254;28;2308;-47
2022/10/04 05:44:51;;;;;;;;;;;;;;;;;;5113717;28;1908;-51
2022/10/04 05:47:26;;;;;;;;;;;;;;;;;;5113454;28;1812;-48
2022/10/04 05:49:56;;;;;;;;;;;;;;;;;;5113810;28;2010;-52
2022/10/04 05:52:35;;;;;;;;;;;;;;;;;;5113686;28;1864;-47
2022/10/04 05:55:11;;;;;;;;;;;;;;;;;;5113549;28;2017;-51
2022/10/04 05:57:50;;;;;;;;;;;;;;;;;;5113577;28;1706;-50
2022/10/04 06:00:22;;;;;;;;;;;;;;;;;;5113431;28;1936;-46
2022/10/04 06:03:03;;;;;;;;;;;;;;;;;;5113485;28;1916;-54
2022/10/04 06:05:42;;;;;;;;;;;;;;;;;;5111901;28;2053;-48
2022/10/04 06:08:36;;;;;;;;;;;;;;;;;;5113306;28;1923;-48
2022/10/04 06:11:21;;;;;;;;;;;;;;;;;;5089632;28;2169;-51
2022/10/04 06:13:51;;;;;;;;;;;;;;;;;;5113406;28;1805;-50
2022/10/04 06:16:40;;;;;;;;;;;;;;;;;;5112710;28;1941;-52
2022/10/04 06:19:14;;;;;;;;;;;;;;;;;;5111928;28;1832;-48
2022/10/04 06:22:05;;;;;;;;;;;;;;;;;;5113317;28;1948;-53
2022/10/04 06:24:36;;;;;;;;;;;;;;;;;;5112959;28;2120;-50
2022/10/04 06:27:03;;;;;;;;;;;;;;;;;;5113008;28;2026;-50
2022/10/04 06:29:35;;;;;;;;;;;;;;;;;;5113176;28;1960;-52
2022/10/04 06:32:23;;;;;;;;;;;;;;;;;;5111970;28;1888;-47
2022/10/04 06:35:06;;;;;;;;;;;;;;;;;;5113091;28;1856;-55
2022/10/04 06:37:33;;;;;;;;;;;;;;;;;;5112966;28;2010;-53
2022/10/04 06:40:13;;;;;;;;;;;;;;;;;;5113216;28;1998;-49
2022/10/04 06:42:41;;;;;;;;;;;;;;;;;;5113389;28;1971;-46
2022/10/04 06:45:28;;;;;;;;;;;;;;;;;;5117266;28;1984;-53
2022/10/04 06:48:01;;;;;;;;;;;;;;;;;;5117224;28;2025;-55
2022/10/04 06:50:43;;;;;;;;;;;;;;;;;;5117250;28;2137;-52
2022/10/04 06:53:21;;;;;;;;;;;;;;;;;;5117050;28;1994;-55
2022/10/04 06:56:07;;;;;;;;;;;;;;;;;;5116789;28;1844;-49
2022/10/04 06:58:42;;;;;;;;;;;;;;;;;;5117125;28;1751;-48
2022/10/04 07:01:21;;;;;;;;;;;;;;;;;;5116832;28;2287;-53
2022/10/04 07:03:48;;;;;;;;;;;;;;;;;;5116753;28;1796;-50
2022/10/04 07:06:28;;;;;;;;;;;;;;;;;;5116786;28;2078;-52
2022/10/04 07:09:01;;;;;;;;;;;;;;;;;;5116671;28;1902;-49
2022/10/04 07:11:36;;;;;;;;;;;;;;;;;;5116884;28;1958;-49
2022/10/04 07:14:05;;;;;;;;;;;;;;;;;;5116403;28;1816;-51
2022/10/04 07:16:32;;;;;;;;;;;;;;;;;;5116660;28;1973;-53
2022/10/04 07:18:59;;;;;;;;;;;;;;;;;;5116725;28;2243;-54
2022/10/04 07:21:32;;;;;;;;;;;;;;;;;;5116435;28;1912;-54
2022/10/04 07:24:04;;;;;;;;;;;;;;;;;;5116572;28;1914;-50
2022/10/04 07:26:36;;;;;;;;;;;;;;;;;;5116201;27;1830;-51
2022/10/04 07:29:20;;;;;;;;;;;;;;;;;;5115913;28;2020;-53
2022/10/04 07:32:01;;;;;;;;;;;;;;;;;;5116405;27;1933;-49
2022/10/04 07:34:30;;;;;;;;;;;;;;;;;;5136414;27;1952;-51
2022/10/04 07:36:59;;;;;;;;;;;;;;;;;;5137136;27;2042;-54
2022/10/04 07:39:49;;;;;;;;;;;;;;;;;;5136696;27;1864;-52
2022/10/04 07:42:28;;;;;;;;;;;;;;;;;;5136472;27;1769;-53
2022/10/04 07:44:58;;;;;;;;;;;;;;;;;;5152674;27;2001;-53
2022/10/04 07:47:26;;;;;;;;;;;;;;;;;;5136527;27;1961;-56
2022/10/04 07:49:54;;;;;;;;;;;;;;;;;;5136133;27;1985;-52
2022/10/04 07:52:39;;;;;;;;;;;;;;;;;;5136345;27;1798;-55
2022/10/04 07:55:16;;;;;;;;;;;;;;;;;;5135234;27;1734;-53
2022/10/04 07:57:57;;;;;;;;;;;;;;;;;;5136672;27;1933;-48
2022/10/04 08:00:29;;;;;;;;;;;;;;;;;;5136019;27;1778;-54
2022/10/04 08:02:59;;;;;;;;;;;;;;;;;;5136165;27;1849;-49
2022/10/04 08:05:36;;;;;;;;;;;;;;;;;;5136059;27;1740;-52
2022/10/04 08:08:21;;;;;;;;;;;;;;;;;;5136342;27;2223;-53
2022/10/04 08:11:07;;;;;;;;;;;;;;;;;;5135861;27;1927;-50
2022/10/04 08:13:34;;;;;;;;;;;;;;;;;;5135946;27;1873;-50
2022/10/04 08:16:03;;;;;;;;;;;;;;;;;;5135927;27;2068;-52
2022/10/04 08:18:51;;;;;;;;;;;;;;;;;;5136209;27;2025;-50
2022/10/04 08:21:25;;;;;;;;;;;;;;;;;;5135669;27;2117;-49
2022/10/04 08:24:05;;;;;;;;;;;;;;;;;;5135844;27;1809;-51
2022/10/04 08:26:56;;;;;;;;;;;;;;;;;;5134689;27;1928;-48
2022/10/04 08:29:42;;;;;;;;;;;;;;;;;;5135538;27;1964;-50
2022/10/04 08:32:28;;;;;;;;;;;;;;;;;;5135189;27;2040;-53
2022/10/04 08:34:58;;;;;;;;;;;;;;;;;;5115076;28;1923;-54
2022/10/04 08:37:34;;;;;;;;;;;;;;;;;;5114999;28;1816;-52
2022/10/04 08:40:16;;;;;;;;;;;;;;;;;;5115245;28;1968;-55
2022/10/04 08:43:01;;;;;;;;;;;;;;;;;;5074406;28;1919;-50
2022/10/04 08:45:43;;;;;;;;;;;;;;;;;;5074433;28;1903;-54
2022/10/04 08:48:29;;;;;;;;;;;;;;;;;;5074083;28;2075;-53
2022/10/04 08:50:59;;;;;;;;;;;;;;;;;;5073565;28;1827;-50
2022/10/04 08:53:43;;;;;;;;;;;;;;;;;;5073831;28;1907;-50
2022/10/04 08:56:19;;;;;;;;;;;;;;;;;;5074291;28;1795;-53
2022/10/04 08:58:52;;;;;;;;;;;;;;;;;;5073581;28;1854;-55
2022/10/04 09:01:31;;;;;;;;;;;;;;;;;;5073991;28;1938;-56
2022/10/04 09:04:17;;;;;;;;;;;;;;;;;;5073858;28;1982;-55
2022/10/04 09:07:03;;;;;;;;;;;;;;;;;;5072662;28;1794;-54
2022/10/04 09:09:53;;;;;;;;;;;;;;;;;;5073689;28;1973;-52
2022/10/04 09:12:21;;;;;;;;;;;;;;;;;;5054447;28;1953;-51
2022/10/04 09:15:06;;;;;;;;;;;;;;;;;;5073997;28;1957;-57
2022/10/04 09:17:53;;;;;;;;;;;;;;;;;;5073501;28;1875;-51
2022/10/04 09:20:31;;;;;;;;;;;;;;;;;;5072231;28;1943;-54
2022/10/04 09:23:16;;;;;;;;;;;;;;;;;;5072915;28;1800;-50
2022/10/04 09:25:51;;;;;;;;;;;;;;;;;;5073347;28;2036;-56
2022/10/04 09:28:34;;;;;;;;;;;;;;;;;;5071871;28;1789;-46
2022/10/04 09:31:07;;;;;;;;;;;;;;;;;;5073500;28;1759;-47
2022/10/04 09:33:48;;;;;;;;;;;;;;;;;;5073224;28;1963;-50
2022/10/04 09:36:44;;;;;;;;;;;;;;;;;;5073132;28;1837;-51
2022/10/04 09:39:15;;;;;;;;;;;;;;;;;;5064165;28;2194;-49
2022/10/04 09:42:11;;;;;;;;;;;;;;;;;;5102208;28;1931;-52
2022/10/04 09:44:47;;;;;;;;;;;;;;;;;;5113524;28;1900;-46
2022/10/04 09:47:30;;;;;;;;;;;;;;;;;;5113300;28;2141;-51
2022/10/04 09:50:17;;;;;;;;;;;;;;;;;;5113302;28;1968;-44
2022/10/04 09:52:45;;;;;;;;;;;;;;;;;;5113179;28;1794;-51
2022/10/04 09:55:35;;;;;;;;;;;;;;;;;;5113435;28;1910;-53
2022/10/04 09:58:21;;;;;;;;;;;;;;;;;;5113596;28;2011;-53
2022/10/04 10:00:57;;;;;;;;;;;;;;;;;;5113620;28;1996;-53
2022/10/04 10:03:31;;;;;;;;;;;;;;;;;;5113237;28;1910;-56
2022/10/04 10:06:04;;;;;;;;;;;;;;;;;;5113483;28;2018;-50
2022/10/04 10:08:34;;;;;;;;;;;;;;;;;;5112238;28;1950;-49
2022/10/04 10:14:08;;;;;;;;;;;;;;;;;;5112996;28;2076;-56
2022/10/04 10:16:39;;;;;;;;;;;;;;;;;;5113115;28;2088;-49
2022/10/04 10:19:17;;;;;;;;;;;;;;;;;;5113088;28;1900;-53
2022/10/04 10:21:47;;;;;;;;;;;;;;;;;;5113182;28;1784;-56
2022/10/04 10:24:16;;;;;;;;;;;;;;;;;;5113176;28;1841;-55
2022/10/04 10:27:23;;;;;;;;;;;;;;;;;;5111951;28;2169;-53
2022/10/04 10:30:10;;;;;;;;;;;;;;;;;;5047910;28;1995;-50
2022/10/04 10:32:37;;;;;;;;;;;;;;;;;;5108410;28;1799;-51
2022/10/04 10:35:14;;;;;;;;;;;;;;;;;;5111394;28;1882;-55
2022/10/04 10:37:41;;;;;;;;;;;;;;;;;;5111213;28;2037;-54
2022/10/04 10:40:08;;;;;;;;;;;;;;;;;;5111066;28;1767;-55
2022/10/04 10:42:50;;;;;;;;;;;;;;;;;;5112377;28;1852;-55
2022/10/04 10:45:22;;;;;;;;;;;;;;;;;;5112762;28;1869;-56
2022/10/04 10:47:49;;;;;;;;;;;;;;;;;;5131972;28;2069;-56
2022/10/04 10:50:24;;;;;;;;;;;;;;;;;;5133375;27;1969;-56
2022/10/04 10:53:06;;;;;;;;;;;;;;;;;;5133569;27;1984;-55
2022/10/04 10:55:51;;;;;;;;;;;;;;;;;;5132788;27;1471;-56
2022/10/04 10:58:37;;;;;;;;;;;;;;;;;;5132945;28;1831;-55
2022/10/04 11:01:04;;;;;;;;;;;;;;;;;;5133614;27;1913;-52
2022/10/04 11:03:53;;;;;;;;;;;;;;;;;;5133495;27;1893;-50
2022/10/04 11:06:40;;;;;;;;;;;;;;;;;;5133560;27;2022;-56
2022/10/04 11:09:40;;;;;;;;;;;;;;;;;;5133075;28;2265;-55
2022/10/04 11:12:08;;;;;;;;;;;;;;;;;;5098998;28;1949;-52
2022/10/04 11:14:45;;;;;;;;;;;;;;;;;;5132819;28;1933;-52
2022/10/04 11:17:32;;;;;;;;;;;;;;;;;;5133033;27;1980;-52
2022/10/04 11:20:10;;;;;;;;;;;;;;;;;;5133378;27;1979;-50
2022/10/04 11:23:04;;;;;;;;;;;;;;;;;;5133059;27;1821;-53
2022/10/04 11:25:49;;;;;;;;;;;;;;;;;;5133412;27;2058;-49
2022/10/04 11:28:17;;;;;;;;;;;;;;;;;;5133257;27;2152;-50
2022/10/04 11:30:50;;;;;;;;;;;;;;;;;;5134135;27;1910;-54
2022/10/04 11:33:51;;;;;;;;;;;;;;;;;;5127336;27;1811;-53
2022/10/04 11:36:32;;;;;;;;;;;;;;;;;;5046271;28;2033;-54
2022/10/04 11:39:05;;;;;;;;;;;;;;;;;;5116415;28;2054;-53
2022/10/04 11:41:39;;;;;;;;;;;;;;;;;;5116263;28;1348;-52
2022/10/04 11:44:07;;;;;;;;;;;;;;;;;;5116251;28;2205;-54
2022/10/04 11:46:37;;;;;;;;;;;;;;;;;;5116372;27;1746;-49
2022/10/04 11:49:04;;;;;;;;;;;;;;;;;;5116014;28;2341;-53
2022/10/04 11:51:47;;;;;;;;;;;;;;;;;;5116410;28;1910;-53
2022/10/04 11:54:29;;;;;;;;;;;;;;;;;;5128181;27;1812;-50
2022/10/04 11:56:58;;;;;;;;;;;;;;;;;;5136597;27;1824;-52
2022/10/04 11:59:38;;;;;;;;;;;;;;;;;;5136544;27;2128;-52
2022/10/04 12:02:17;;;;;;;;;;;;;;;;;;5136219;27;2057;-52
2022/10/04 12:04:56;;;;;;;;;;;;;;;;;;5136495;27;1930;-53
2022/10/04 12:07:33;;;;;;;;;;;;;;;;;;5136171;27;1985;-48
2022/10/04 12:10:03;;;;;;;;;;;;;;;;;;5136456;27;1910;-54
2022/10/04 12:12:42;;;;;;;;;;;;;;;;;;5136234;27;1771;-50
2022/10/04 12:15:16;;;;;;;;;;;;;;;;;;5136140;27;2060;-53
2022/10/04 12:18:24;;;;;;;;;;;;;;;;;;5136242;27;1804;-52
2022/10/04 12:20:58;;;;;;;;;;;;;;;;;;5072188;28;2052;-52
2022/10/04 12:23:45;;;;;;;;;;;;;;;;;;5072402;28;2245;-47
2022/10/04 12:26:21;;;;;;;;;;;;;;;;;;5109269;27;2018;-50
2022/10/04 12:28:54;;;;;;;;;;;;;;;;;;5135872;27;2002;-53
2022/10/04 12:31:31;;;;;;;;;;;;;;;;;;5135639;27;1910;-50
2022/10/04 12:34:14;;;;;;;;;;;;;;;;;;5120552;27;2191;-56
2022/10/04 12:37:00;;;;;;;;;;;;;;;;;;5115225;28;2199;-52
2022/10/04 12:39:33;;;;;;;;;;;;;;;;;;5115010;28;1881;-51
2022/10/04 12:42:19;;;;;;;;;;;;;;;;;;5112838;28;1839;-53
2022/10/04 12:45:05;;;;;;;;;;;;;;;;;;5113765;28;2337;-55
2022/10/04 12:47:47;;;;;;;;;;;;;;;;;;5114918;28;1858;-50
2022/10/04 12:50:26;;;;;;;;;;;;;;;;;;5114651;28;2148;-51
2022/10/04 12:53:00;;;;;;;;;;;;;;;;;;5114699;28;1994;-51
2022/10/04 12:55:33;;;;;;;;;;;;;;;;;;5114897;28;1937;-53
2022/10/04 12:58:05;;;;;;;;;;;;;;;;;;5114653;28;1870;-50
2022/10/04 13:00:35;;;;;;;;;;;;;;;;;;5114745;28;1923;-50
2022/10/04 13:03:21;;;;;;;;;;;;;;;;;;5114935;28;1629;-49
2022/10/04 13:06:01;;;;;;;;;;;;;;;;;;5114625;28;2026;-51
2022/10/04 13:08:29;;;;;;;;;;;;;;;;;;5114180;28;2131;-47
2022/10/04 13:11:07;;;;;;;;;;;;;;;;;;5114363;28;2081;-49
2022/10/04 13:13:53;;;;;;;;;;;;;;;;;;5114342;28;1989;-56
2022/10/04 13:16:41;;;;;;;;;;;;;;;;;;5114421;27;1773;-54
2022/10/04 13:19:49;;;;;;;;;;;;;;;;;;5114390;28;1653;-53
2022/10/04 13:22:39;;;;;;;;;;;;;;;;;;5114161;28;2117;-57
2022/10/04 13:25:28;;;;;;;;;;;;;;;;;;5114185;28;2063;-55
2022/10/04 13:28:01;;;;;;;;;;;;;;;;;;5114207;27;1993;-55
2022/10/04 13:30:36;;;;;;;;;;;;;;;;;;5113854;28;2009;-53
2022/10/04 13:33:25;;;;;;;;;;;;;;;;;;5114005;28;1922;-55
2022/10/04 13:35:58;;;;;;;;;;;;;;;;;;5112725;28;2001;-49
2022/10/04 13:38:28;;;;;;;;;;;;;;;;;;5114086;28;2137;-54
2022/10/04 13:41:16;;;;;;;;;;;;;;;;;;5113851;28;2227;-52
2022/10/04 13:44:02;;;;;;;;;;;;;;;;;;5103684;28;1703;-57
2022/10/04 13:46:51;;;;;;;;;;;;;;;;;;5113794;28;2160;-54
2022/10/04 13:49:18;;;;;;;;;;;;;;;;;;5103888;28;1281;-56
2022/10/04 13:56:35;;;;;;;;;;;;;;;;;;5113408;28;2078;-51
2022/10/04 13:57:44;;;;;;;;;;;;;;;;;;5113111;28;1991;-56
2022/10/04 14:00:13;;;;;;;;;;;;;;;;;;5113570;28;2024;-54
2022/10/04 14:02:59;;;;;;;;;;;;;;;;;;5113371;28;1786;-57
2022/10/04 14:05:42;;;;;;;;;;;;;;;;;;5112569;28;1786;-55
2022/10/04 14:08:12;;;;;;;;;;;;;;;;;;5110547;28;2131;-55
2022/10/04 14:10:58;;;;;;;;;;;;;;;;;;5111762;28;2042;-56
2022/10/04 14:13:48;;;;;;;;;;;;;;;;;;5111431;28;1843;-58
2022/10/04 14:16:24;;;;;;;;;;;;;;;;;;5111467;28;1971;-52
2022/10/04 14:18:52;;;;;;;;;;;;;;;;;;5111382;28;1946;-54
2022/10/04 14:21:26;;;;;;;;;;;;;;;;;;5111770;28;2058;-48
2022/10/04 14:23:53;;;;;;;;;;;;;;;;;;5112966;28;1897;-56
2022/10/04 14:26:39;;;;;;;;;;;;;;;;;;5113283;28;2076;-57
2022/10/04 14:29:19;;;;;;;;;;;;;;;;;;5113379;28;1773;-56
2022/10/04 14:32:13;;;;;;;;;;;;;;;;;;5112823;28;1922;-56
2022/10/04 14:34:55;;;;;;;;;;;;;;;;;;5113244;28;1942;-54
2022/10/04 14:37:26;;;;;;;;;;;;;;;;;;5112842;28;1819;-49
2022/10/04 14:39:59;;;;;;;;;;;;;;;;;;5113030;28;1806;-54
2022/10/04 14:42:33;;;;;;;;;;;;;;;;;;5112823;28;1940;-56
2022/10/04 14:45:03;;;;;;;;;;;;;;;;;;5112835;28;2152;-57
2022/10/04 14:47:41;;;;;;;;;;;;;;;;;;5113078;28;1750;-57
2022/10/04 14:50:20;;;;;;;;;;;;;;;;;;5113266;28;1969;-57
2022/10/04 14:53:08;;;;;;;;;;;;;;;;;;5112658;28;2035;-57
2022/10/04 14:55:44;;;;;;;;;;;;;;;;;;5112560;28;1607;-55
2022/10/04 14:58:30;;;;;;;;;;;;;;;;;;5113157;28;1957;-54
2022/10/04 15:01:10;;;;;;;;;;;;;;;;;;5112762;28;1884;-53
2022/10/04 15:03:44;;;;;;;;;;;;;;;;;;5112888;28;2033;-56
2022/10/04 15:06:23;;;;;;;;;;;;;;;;;;5116048;28;2043;-55
2022/10/04 15:08:59;;;;;;;;;;;;;;;;;;5116915;28;1876;-55
2022/10/04 15:11:38;;;;;;;;;;;;;;;;;;5116688;28;1978;-54
2022/10/04 15:14:24;;;;;;;;;;;;;;;;;;5116856;28;1562;-56
2022/10/04 15:16:57;;;;;;;;;;;;;;;;;;5116762;28;2157;-51
2022/10/04 15:19:43;;;;;;;;;;;;;;;;;;5116380;28;2058;-53
2022/10/04 15:22:13;;;;;;;;;;;;;;;;;;5117029;28;1475;-54
2022/10/04 15:24:45;;;;;;;;;;;;;;;;;;5116888;28;2039;-55
2022/10/04 15:27:22;;;;;;;;;;;;;;;;;;5116784;28;2040;-56
2022/10/04 15:29:58;;;;;;;;;;;;;;;;;;5116637;28;2186;-55
2022/10/04 15:33:05;;;;;;;;;;;;;;;;;;5118450;27;1901;-53
2022/10/04 15:35:36;;;;;;;;;;;;;;;;;;5073350;28;1945;-51
2022/10/04 15:38:06;;;;;;;;;;;;;;;;;;5072898;28;1984;-53
2022/10/04 15:40:51;;;;;;;;;;;;;;;;;;5096033;28;1422;-51
2022/10/04 15:43:19;;;;;;;;;;;;;;;;;;5116366;28;1875;-54
2022/10/04 15:45:54;;;;;;;;;;;;;;;;;;5116370;28;2010;-55
2022/10/04 15:48:31;;;;;;;;;;;;;;;;;;5116272;28;1898;-56
2022/10/04 15:51:16;;;;;;;;;;;;;;;;;;5116029;28;1975;-51
2022/10/04 15:53:49;;;;;;;;;;;;;;;;;;5116346;28;1952;-58
2022/10/04 15:56:23;;;;;;;;;;;;;;;;;;5116097;28;1980;-54
2022/10/04 15:59:11;;;;;;;;;;;;;;;;;;5116025;28;2169;-57
2022/10/04 16:02:01;;;;;;;;;;;;;;;;;;5115834;28;2087;-58
2022/10/04 16:04:48;;;;;;;;;;;;;;;;;;5114442;28;2308;-57
2022/10/04 16:07:25;;;;;;;;;;;;;;;;;;5115849;27;1943;-49
2022/10/04 16:09:57;;;;;;;;;;;;;;;;;;5115446;28;1984;-57
2022/10/04 16:12:34;;;;;;;;;;;;;;;;;;5115586;28;2104;-58
2022/10/04 16:15:18;;;;;;;;;;;;;;;;;;5115115;28;2114;-57
2022/10/04 16:17:47;;;;;;;;;;;;;;;;;;5115785;28;2049;-53
2022/10/04 16:20:34;;;;;;;;;;;;;;;;;;5116086;27;1982;-57
2022/10/04 16:23:20;;;;;;;;;;;;;;;;;;5136064;27;1924;-56
2022/10/04 16:25:50;;;;;;;;;;;;;;;;;;5136128;27;1982;-57
2022/10/04 16:28:19;;;;;;;;;;;;;;;;;;5135926;27;1850;-56
2022/10/04 16:31:05;;;;;;;;;;;;;;;;;;5135826;27;1918;-55
2022/10/04 16:33:43;;;;;;;;;;;;;;;;;;5124012;27;1855;-55
2022/10/04 16:36:13;;;;;;;;;;;;;;;;;;5115154;27;2050;-55
2022/10/04 16:41:53;;;;;;;;;;;;;;;;;;5115322;28;1970;-57
2022/10/04 16:44:27;;;;;;;;;;;;;;;;;;5115063;28;2115;-56
2022/10/04 16:46:59;;;;;;;;;;;;;;;;;;5114903;28;1703;-58
2022/10/04 16:49:40;;;;;;;;;;;;;;;;;;5114840;28;1800;-53
2022/10/04 16:52:16;;;;;;;;;;;;;;;;;;5114996;28;1987;-52
2022/10/04 16:54:50;;;;;;;;;;;;;;;;;;5115127;28;1705;-57
2022/10/04 16:57:21;;;;;;;;;;;;;;;;;;5114971;28;1919;-54
2022/10/04 16:59:50;;;;;;;;;;;;;;;;;;5114767;28;1995;-54
2022/10/04 17:02:24;;;;;;;;;;;;;;;;;;5114883;28;2142;-56
2022/10/04 17:05:21;;;;;;;;;;;;;;;;;;5114651;28;1995;-54
2022/10/04 17:08:10;;;;;;;;;;;;;;;;;;5042848;28;1992;-56
2022/10/04 17:10:56;;;;;;;;;;;;;;;;;;5114504;28;1901;-53
2022/10/04 17:13:44;;;;;;;;;;;;;;;;;;5114576;28;1936;-54
2022/10/04 17:16:38;;;;;;;;;;;;;;;;;;5113403;28;1998;-54
2022/10/04 17:19:26;;;;;;;;;;;;;;;;;;5112179;28;2130;-56
2022/10/04 17:22:07;;;;;;;;;;;;;;;;;;5114567;28;1810;-57
2022/10/04 17:24:53;;;;;;;;;;;;;;;;;;5114322;28;1979;-55
2022/10/04 17:27:20;;;;;;;;;;;;;;;;;;5113585;28;1975;-57
2022/10/04 17:29:54;;;;;;;;;;;;;;;;;;5114417;28;1854;-55
2022/10/04 17:32:23;;;;;;;;;;;;;;;;;;5115733;27;2007;-52
2022/10/04 17:34:53;;;;;;;;;;;;;;;;;;5133106;27;1860;-57
2022/10/04 17:37:31;;;;;;;;;;;;;;;;;;5134670;27;1991;-53
2022/10/04 17:40:19;;;;;;;;;;;;;;;;;;5134669;27;2134;-57
2022/10/04 17:42:52;;;;;;;;;;;;;;;;;;5134332;27;1765;-55
2022/10/04 17:45:28;;;;;;;;;;;;;;;;;;5134457;27;2093;-55
2022/10/04 17:56:25;;;;;;;;;;;;;;;;;;5134182;27;1853;-57
2022/10/04 17:58:56;;;;;;;;;;;;;;;;;;5133490;27;1688;-57
2022/10/04 18:01:26;;;;;;;;;;;;;;;;;;5133857;27;1982;-58
2022/10/04 18:04:05;;;;;;;;;;;;;;;;;;5134054;27;1852;-57
2022/10/04 18:06:36;;;;;;;;;;;;;;;;;;5134512;27;2002;-55
2022/10/04 18:09:09;;;;;;;;;;;;;;;;;;5132977;27;2077;-57
2022/10/04 18:11:50;;;;;;;;;;;;;;;;;;5132199;27;1970;-57
2022/10/04 18:14:23;;;;;;;;;;;;;;;;;;5132328;27;1626;-50
2022/10/04 18:16:54;;;;;;;;;;;;;;;;;;5132331;27;2121;-57
2022/10/04 18:19:37;;;;;;;;;;;;;;;;;;5133375;27;1848;-53
2022/10/04 18:22:10;;;;;;;;;;;;;;;;;;5133463;27;1855;-57
2022/10/04 18:24:37;;;;;;;;;;;;;;;;;;5132653;27;1800;-53
2022/10/04 18:27:14;;;;;;;;;;;;;;;;;;5133699;27;1976;-57
2022/10/04 18:29:42;;;;;;;;;;;;;;;;;;5133578;27;2001;-58